createdAt,value
2018-07-20T00:03:34.575Z,3.80
2018-07-20T00:06:03.349Z,4.05
2018-07-20T00:08:32.804Z,3.67
2018-07-20T00:11:04.713Z,3.67
2018-07-20T00:13:33.856Z,3.70
2018-07-20T00:16:03.119Z,3.97
2018-07-20T00:18:31.724Z,4.00
2018-07-20T00:21:00.346Z,3.72
2018-07-20T00:26:16.583Z,4.72
2018-07-20T00:28:45.261Z,3.70
2018-07-20T00:31:13.909Z,4.40
2018-07-20T00:33:42.549Z,3.67
2018-07-20T00:36:11.206Z,3.40
2018-07-20T00:38:39.835Z,3.90
2018-07-20T00:41:08.498Z,3.78
2018-07-20T00:43:37.128Z,3.78
2018-07-20T00:46:13.328Z,3.87
2018-07-20T00:48:41.945Z,3.58
2018-07-20T00:51:11.164Z,3.58
2018-07-20T00:53:45.359Z,3.75
2018-07-20T00:56:14.934Z,4.18
2018-07-20T00:58:44.102Z,4.05
2018-07-20T01:01:13.715Z,4.20
2018-07-20T01:03:42.706Z,4.10
2018-07-20T01:06:11.787Z,3.90
2018-07-20T01:08:40.557Z,4.40
2018-07-20T01:11:09.462Z,4.50
2018-07-20T01:13:38.089Z,3.70
2018-07-20T01:16:06.758Z,4.05
2018-07-20T01:18:35.378Z,4.28
2018-07-20T01:21:04.032Z,3.83
2018-07-20T01:23:32.655Z,4.03
2018-07-20T01:26:01.826Z,3.78
2018-07-20T01:28:30.764Z,4.00
2018-07-20T01:31:02.358Z,3.95
2018-07-20T01:33:31.335Z,4.05
2018-07-20T01:35:59.996Z,3.78
2018-07-20T01:38:28.826Z,3.75
2018-07-20T01:40:57.594Z,4.07
2018-07-20T01:43:26.229Z,4.22
2018-07-20T01:45:55.464Z,4.50
2018-07-20T01:48:24.039Z,4.60
2018-07-20T01:50:53.477Z,4.25
2018-07-20T01:53:22.184Z,4.03
2018-07-20T01:55:52.274Z,4.43
2018-07-20T01:58:24.586Z,4.10
2018-07-20T02:00:53.284Z,4.20
2018-07-20T02:03:22.302Z,3.90
2018-07-20T02:05:51.142Z,4.03
2018-07-20T02:08:20.852Z,4.03
2018-07-20T02:10:50.714Z,4.37
2018-07-20T02:13:19.476Z,3.85
2018-07-20T02:15:48.110Z,4.65
2018-07-20T02:18:16.783Z,4.22
2018-07-20T02:20:45.958Z,3.97
2018-07-20T02:23:16.208Z,4.40
2018-07-20T02:25:44.855Z,4.07
2018-07-20T02:28:14.052Z,4.22
2018-07-20T02:30:42.991Z,4.43
2018-07-20T02:33:11.664Z,3.80
2018-07-20T02:35:40.966Z,4.18
2018-07-20T02:38:09.636Z,4.40
2018-07-20T02:40:38.275Z,4.35
2018-07-20T02:43:06.932Z,4.50
2018-07-20T02:45:35.575Z,4.32
2018-07-20T02:48:04.938Z,4.05
2018-07-20T02:50:33.942Z,4.50
2018-07-20T02:53:02.946Z,4.82
2018-07-20T02:55:31.598Z,4.05
2018-07-20T02:58:00.248Z,4.25
2018-07-20T03:00:29.230Z,4.07
2018-07-20T03:02:58.530Z,4.10
2018-07-20T03:05:27.571Z,4.80
2018-07-20T03:07:56.301Z,4.43
2018-07-20T03:10:25.272Z,4.00
2018-07-20T03:12:54.578Z,4.28
2018-07-20T03:15:38.539Z,5.07
2018-07-20T03:18:07.527Z,4.72
2018-07-20T03:20:38.609Z,5.30
2018-07-20T03:23:08.080Z,5.55
2018-07-20T03:25:36.705Z,4.57
2018-07-20T03:28:05.981Z,4.82
2018-07-20T03:30:35.491Z,5.22
2018-07-20T03:33:09.396Z,4.37
2018-07-20T03:35:42.955Z,4.73
2018-07-20T03:38:11.545Z,4.00
2018-07-20T03:40:40.392Z,4.07
2018-07-20T03:45:56.949Z,4.32
2018-07-20T03:48:25.628Z,4.30
2018-07-20T03:50:54.261Z,4.53
2018-07-20T03:53:22.924Z,4.05
2018-07-20T03:55:51.562Z,5.15
2018-07-20T03:58:20.222Z,4.35
2018-07-20T04:00:48.850Z,4.85
2018-07-20T04:03:17.514Z,5.28
2018-07-20T04:05:46.142Z,5.10
2018-07-20T04:08:15.038Z,5.40
2018-07-20T04:10:43.841Z,5.87
2018-07-20T04:13:12.656Z,5.45
2018-07-20T04:15:41.506Z,5.15
2018-07-20T04:18:10.125Z,5.28
2018-07-20T04:23:28.898Z,5.20
2018-07-20T04:25:58.135Z,5.18
2018-07-20T04:28:26.980Z,5.20
2018-07-20T04:30:56.201Z,5.28
2018-07-20T04:33:24.918Z,4.90
2018-07-20T04:35:53.597Z,5.60
2018-07-20T04:38:22.241Z,5.55
2018-07-20T04:40:51.365Z,5.20
2018-07-20T04:43:21.296Z,5.18
2018-07-20T04:45:50.352Z,5.45
2018-07-20T04:48:19.506Z,5.22
2018-07-20T04:50:50.023Z,6.43
2018-07-20T04:53:20.066Z,5.62
2018-07-20T04:55:49.055Z,5.05
2018-07-20T04:58:17.719Z,5.95
2018-07-20T05:00:46.544Z,6.07
2018-07-20T05:03:15.448Z,5.95
2018-07-20T05:05:44.366Z,6.00
2018-07-20T05:08:13.167Z,6.05
2018-07-20T05:10:41.883Z,6.22
2018-07-20T05:13:12.040Z,5.80
2018-07-20T05:15:40.885Z,5.78
2018-07-20T05:18:10.007Z,5.43
2018-07-20T05:20:38.660Z,6.07
2018-07-20T05:23:07.394Z,5.93
2018-07-20T05:25:36.198Z,6.47
2018-07-20T05:28:05.036Z,6.50
2018-07-20T05:30:33.691Z,5.93
2018-07-20T05:33:02.686Z,8.23
2018-07-20T05:35:31.641Z,7.90
2018-07-20T05:38:00.360Z,7.93
2018-07-20T05:40:29.152Z,7.68
2018-07-20T05:42:57.981Z,7.22
2018-07-20T05:45:26.639Z,8.05
2018-07-20T05:47:55.490Z,7.30
2018-07-20T05:50:32.085Z,8.17
2018-07-20T05:53:00.855Z,8.32
2018-07-20T05:55:29.499Z,8.27
2018-07-20T05:57:58.305Z,7.43
2018-07-20T06:00:27.503Z,8.02
2018-07-20T06:02:56.511Z,7.68
2018-07-20T06:05:25.319Z,7.10
2018-07-20T06:07:54.011Z,7.32
2018-07-20T06:10:23.144Z,7.57
2018-07-20T06:12:52.324Z,7.80
2018-07-20T06:15:27.119Z,6.80
2018-07-20T06:17:56.050Z,7.10
2018-07-20T06:20:25.932Z,7.37
2018-07-20T06:22:54.708Z,6.05
2018-07-20T06:25:23.411Z,7.18
2018-07-20T06:27:52.120Z,7.70
2018-07-20T06:30:20.844Z,7.28
2018-07-20T06:32:49.731Z,6.03
2018-07-20T06:35:18.724Z,5.78
2018-07-20T06:37:47.620Z,6.55
2018-07-20T06:40:16.647Z,6.05
2018-07-20T06:42:47.280Z,5.95
2018-07-20T06:45:16.735Z,5.87
2018-07-20T06:47:46.250Z,5.97
2018-07-20T06:50:15.616Z,5.10
2018-07-20T06:52:44.701Z,5.55
2018-07-20T06:55:13.519Z,5.53
2018-07-20T06:57:42.329Z,4.47
2018-07-20T07:00:11.645Z,4.12
2018-07-20T07:02:40.824Z,4.05
2018-07-20T07:05:09.842Z,3.60
2018-07-20T07:07:39.419Z,4.22
2018-07-20T07:10:08.396Z,4.30
2018-07-20T07:12:38.107Z,4.30
2018-07-20T07:15:07.230Z,3.85
2018-07-20T07:17:36.011Z,3.65
2018-07-20T07:20:05.289Z,3.33
2018-07-20T07:22:34.599Z,3.78
2018-07-20T07:25:04.104Z,3.65
2018-07-20T07:27:34.256Z,3.20
2018-07-20T07:30:02.943Z,3.83
2018-07-20T07:32:31.837Z,3.62
2018-07-20T07:35:00.528Z,3.78
2018-07-20T07:37:30.070Z,4.00
2018-07-20T07:39:59.859Z,4.00
2018-07-20T07:42:28.783Z,3.90
2018-07-20T07:44:59.072Z,3.50
2018-07-20T07:47:31.723Z,3.40
2018-07-20T07:50:02.618Z,3.45
2018-07-20T07:52:31.540Z,3.22
2018-07-20T07:55:01.749Z,3.03
2018-07-20T07:57:31.852Z,2.70
2018-07-20T08:00:00.989Z,3.08
2018-07-20T08:02:30.123Z,2.83
2018-07-20T08:04:59.403Z,2.80
2018-07-20T08:07:30.007Z,3.20
2018-07-20T08:09:59.072Z,3.28
2018-07-20T08:12:27.782Z,3.05
2018-07-20T08:14:58.229Z,2.95
2018-07-20T08:17:26.940Z,2.92
2018-07-20T08:19:55.698Z,3.05
2018-07-20T08:22:24.559Z,2.70
2018-07-20T08:24:53.769Z,2.97
2018-07-20T08:27:22.594Z,2.83
2018-07-20T08:29:51.302Z,2.70
2018-07-20T08:32:20.013Z,3.08
2018-07-20T08:34:50.647Z,2.80
2018-07-20T08:37:18.188Z,2.55
2018-07-20T08:39:47.304Z,3.25
2018-07-20T08:42:16.075Z,2.95
2018-07-20T08:44:45.253Z,3.15
2018-07-20T08:47:13.890Z,2.78
2018-07-20T08:49:43.543Z,3.33
2018-07-20T08:52:20.518Z,3.12
2018-07-20T08:54:50.874Z,3.08
2018-07-20T08:57:21.571Z,2.78
2018-07-20T08:59:50.676Z,2.78
2018-07-20T09:02:19.374Z,3.28
2018-07-20T09:04:48.299Z,2.90
2018-07-20T09:07:16.975Z,2.90
2018-07-20T09:09:45.647Z,3.00
2018-07-20T09:12:14.840Z,2.67
2018-07-20T09:14:43.714Z,2.87
2018-07-20T09:17:14.123Z,2.33
2018-07-20T09:19:43.384Z,2.80
2018-07-20T09:23:07.005Z,2.95
2018-07-20T09:25:35.653Z,2.80
2018-07-20T09:28:47.067Z,2.95
2018-07-20T09:34:25.364Z,2.40
2018-07-20T09:36:54.022Z,3.05
2018-07-20T09:39:22.646Z,2.37
2018-07-20T09:41:51.294Z,2.55
2018-07-20T09:44:20.707Z,2.40
2018-07-20T09:46:49.302Z,2.42
2018-07-20T09:49:18.058Z,2.53
2018-07-20T09:51:46.930Z,2.60
2018-07-20T09:54:18.327Z,2.45
2018-07-20T09:56:47.850Z,2.85
2018-07-20T09:59:16.705Z,3.00
2018-07-20T10:01:46.464Z,3.20
2018-07-20T10:04:15.087Z,2.85
2018-07-20T10:06:44.412Z,3.20
2018-07-20T10:09:13.034Z,2.80
2018-07-20T10:11:42.078Z,2.97
2018-07-20T10:14:10.889Z,3.08
2018-07-20T10:16:39.691Z,2.80
2018-07-20T10:19:08.365Z,2.90
2018-07-20T10:21:37.344Z,2.75
2018-07-20T10:24:06.000Z,2.75
2018-07-20T10:26:34.974Z,2.72
2018-07-20T10:29:03.979Z,2.33
2018-07-20T10:31:33.068Z,2.58
2018-07-20T10:34:01.886Z,2.70
2018-07-20T10:36:30.608Z,2.90
2018-07-20T10:38:59.412Z,2.80
2018-07-20T10:41:28.213Z,2.90
2018-07-20T10:43:57.235Z,3.08
2018-07-20T10:46:25.868Z,3.33
2018-07-20T10:48:54.525Z,3.15
2018-07-20T10:51:23.463Z,3.17
2018-07-20T10:53:52.962Z,3.10
2018-07-20T10:56:22.065Z,3.17
2018-07-20T10:58:51.657Z,3.12
2018-07-20T11:01:23.205Z,3.40
2018-07-20T11:03:52.948Z,3.37
2018-07-20T11:06:21.719Z,3.42
2018-07-20T11:08:50.579Z,3.00
2018-07-20T11:11:19.387Z,3.22
2018-07-20T11:13:49.151Z,3.12
2018-07-20T11:16:18.068Z,3.15
2018-07-20T11:18:46.990Z,3.42
2018-07-20T11:21:20.537Z,3.42
2018-07-20T11:23:50.538Z,3.47
2018-07-20T11:26:23.341Z,3.30
2018-07-20T11:28:52.929Z,3.40
2018-07-20T11:31:22.783Z,3.50
2018-07-20T11:33:53.125Z,3.55
2018-07-20T11:36:22.344Z,3.83
2018-07-20T11:38:51.464Z,3.55
2018-07-20T11:41:20.701Z,4.55
2018-07-20T11:43:50.266Z,3.90
2018-07-20T11:46:19.859Z,3.83
2018-07-20T11:48:50.743Z,4.10
2018-07-20T11:51:19.965Z,3.80
2018-07-20T11:53:50.370Z,3.67
2018-07-20T11:56:19.781Z,4.35
2018-07-20T11:58:49.250Z,4.18
2018-07-20T12:01:18.844Z,4.05
2018-07-20T12:03:52.286Z,4.20
2018-07-20T12:06:25.900Z,4.43
2018-07-20T12:08:55.308Z,4.05
2018-07-20T12:11:24.728Z,4.10
2018-07-20T12:13:54.133Z,3.62
2018-07-20T12:16:23.027Z,3.90
2018-07-20T12:18:52.171Z,4.97
2018-07-20T12:21:21.792Z,3.92
2018-07-20T12:23:50.594Z,3.75
2018-07-20T12:26:22.372Z,4.20
2018-07-20T12:28:50.996Z,3.85
2018-07-20T12:31:19.669Z,4.15
2018-07-20T12:33:48.491Z,4.00
2018-07-20T12:36:17.467Z,5.45
2018-07-20T12:38:46.219Z,4.40
2018-07-20T12:41:15.495Z,4.18
2018-07-20T12:43:44.140Z,4.07
2018-07-20T12:46:13.069Z,3.90
2018-07-20T12:48:41.797Z,3.90
2018-07-20T12:51:10.628Z,3.60
2018-07-20T12:53:39.252Z,4.18
2018-07-20T12:56:07.950Z,4.10
2018-07-20T12:58:36.983Z,4.40
2018-07-20T13:01:05.944Z,4.28
2018-07-20T13:03:34.724Z,3.85
2018-07-20T13:06:03.826Z,4.12
2018-07-20T13:08:32.470Z,4.57
2018-07-20T13:11:04.257Z,4.35
2018-07-20T13:13:33.217Z,4.25
2018-07-20T13:16:02.241Z,5.12
2018-07-20T13:18:31.322Z,4.03
2018-07-20T13:21:00.247Z,4.25
2018-07-20T13:23:28.912Z,4.47
2018-07-20T13:26:00.130Z,4.25
2018-07-20T13:28:29.346Z,4.40
2018-07-20T13:30:58.576Z,4.70
2018-07-20T13:33:27.653Z,4.30
2018-07-20T13:35:56.730Z,4.65
2018-07-20T13:38:25.669Z,4.30
2018-07-20T13:40:54.581Z,4.30
2018-07-20T13:43:23.438Z,4.50
2018-07-20T13:45:52.410Z,4.47
2018-07-20T13:48:24.031Z,3.92
2018-07-20T13:50:52.931Z,4.65
2018-07-20T13:53:21.774Z,3.90
2018-07-20T13:55:51.658Z,3.87
2018-07-20T13:58:20.330Z,4.62
2018-07-20T14:00:48.956Z,4.10
2018-07-20T14:03:17.813Z,4.68
2018-07-20T14:05:46.449Z,4.63
2018-07-20T14:08:15.116Z,4.85
2018-07-20T14:10:43.776Z,4.47
2018-07-20T14:13:12.498Z,4.60
2018-07-20T14:15:41.132Z,4.40
2018-07-20T14:18:09.991Z,4.43
2018-07-20T14:20:38.463Z,4.45
2018-07-20T14:23:07.395Z,4.40
2018-07-20T14:25:36.460Z,4.70
2018-07-20T14:28:07.271Z,4.55
